Time,TemperatureF,DewpointF,PressureIn,WindDirection,WindDirectionDegrees,WindSpeedMPH,WindSpeedGustMPH,Humidity,HourlyPrecipIn,Conditions,Clouds,dailyrainin,SoftwareType,DateUTC
2013-04-05 00:02:00,48.2,27.7,23.20,West,270,1.6,4.7,45,0.00,,,0.00,WUHU216HW,2013-04-05 06:02:00,
2013-04-05 00:07:00,47.9,27.4,23.20,West,270,0.9,4.7,45,0.00,,,0.00,WUHU216HW,2013-04-05 06:07:00,
2013-04-05 00:12:00,47.7,27.3,23.20,WNW,293,1.1,2.2,45,0.00,,,0.00,WUHU216HW,2013-04-05 06:12:00,
2013-04-05 00:17:00,47.9,27.4,23.20,WSW,248,1.8,2.2,45,0.00,,,0.00,WUHU216HW,2013-04-05 06:17:00,
2013-04-05 00:22:00,48.1,27.5,23.20,SW,225,1.6,2.0,45,0.00,,,0.00,WUHU216HW,2013-04-05 06:22:00,
2013-04-05 00:27:00,48.4,27.4,23.19,WNW,293,0.2,2.0,44,0.00,,,0.00,WUHU216HW,2013-04-05 06:27:00,
2013-04-05 00:32:00,48.6,27.6,23.20,SW,225,2.5,4.7,44,0.00,,,0.00,WUHU216HW,2013-04-05 06:32:00,
2013-04-05 00:37:00,48.6,27.6,23.19,SW,225,1.1,4.7,44,0.00,,,0.00,WUHU216HW,2013-04-05 06:37:00,
2013-04-05 00:42:00,48.4,27.9,23.19,SW,225,2.9,3.1,45,0.00,,,0.00,WUHU216HW,2013-04-05 06:42:00,
2013-04-05 00:47:00,48.2,27.2,23.19,WSW,248,0.4,3.1,44,0.00,,,0.00,WUHU216HW,2013-04-05 06:47:00,
2013-04-05 00:52:00,48.6,27.6,23.19,West,270,2.0,2.7,44,0.00,,,0.00,WUHU216HW,2013-04-05 06:52:00,
2013-04-05 00:57:00,48.6,27.6,23.19,WSW,248,1.1,2.7,44,0.00,,,0.00,WUHU216HW,2013-04-05 06:57:00,
2013-04-05 01:02:00,48.6,27.6,23.19,SW,225,2.0,2.5,44,0.00,,,0.00,WUHU216HW,2013-04-05 07:02:00,
2013-04-05 01:07:00,48.4,27.4,23.19,South,180,0.2,2.5,44,0.00,,,0.00,WUHU216HW,2013-04-05 07:07:00,
2013-04-05 01:12:00,48.4,27.4,23.19,South,180,0.2,0.2,44,0.00,,,0.00,WUHU216HW,2013-04-05 07:12:00,
2013-04-05 01:33:00,48.4,27.4,23.19,SW,225,3.6,3.6,44,0.00,,,0.00,WUHU216HW,2013-04-05 07:33:00,
2013-04-05 01:38:00,47.9,27.9,23.19,West,270,1.1,3.6,46,0.00,,,0.00,WUHU216HW,2013-04-05 07:38:00,
2013-04-05 01:43:00,47.2,26.7,23.19,SW,225,0.9,2.7,45,0.00,,,0.00,WUHU216HW,2013-04-05 07:43:00,
2013-04-05 01:48:00,47.3,27.5,23.19,WSW,248,3.1,4.0,46,0.00,,,0.00,WUHU216HW,2013-04-05 07:48:00,
2013-04-05 01:53:00,47.3,27.5,23.19,SW,225,1.6,4.0,46,0.00,,,0.00,WUHU216HW,2013-04-05 07:53:00,
2013-04-05 01:58:00,47.3,28.0,23.18,WNW,293,0.0,3.8,47,0.00,,,0.00,WUHU216HW,2013-04-05 07:58:00,
2013-04-05 02:03:00,47.3,28.0,23.19,NW,315,0.2,3.4,47,0.00,,,0.00,WUHU216HW,2013-04-05 08:03:00,
2013-04-05 02:09:00,47.3,28.5,23.18,SW,225,2.0,3.4,48,0.00,,,0.00,WUHU216HW,2013-04-05 08:09:00,
2013-04-05 02:14:00,47.3,29.1,23.18,WSW,248,1.8,2.9,49,0.00,,,0.00,WUHU216HW,2013-04-05 08:14:00,
2013-04-05 02:19:00,47.2,28.9,23.19,West,270,2.5,2.9,49,0.00,,,0.00,WUHU216HW,2013-04-05 08:19:00,
2013-04-05 02:24:00,47.2,29.4,23.18,WSW,248,2.9,3.6,50,0.00,,,0.00,WUHU216HW,2013-04-05 08:24:00,
2013-04-05 02:29:00,47.0,28.7,23.18,WSW,248,2.9,3.6,49,0.00,,,0.00,WUHU216HW,2013-04-05 08:29:00,
2013-04-05 02:34:00,47.0,28.7,23.18,WSW,248,1.1,3.1,49,0.00,,,0.00,WUHU216HW,2013-04-05 08:34:00,
2013-04-05 02:39:00,46.8,29.2,23.18,WSW,248,2.5,3.1,50,0.00,,,0.00,WUHU216HW,2013-04-05 08:39:00,
2013-04-05 02:45:00,46.4,28.8,23.18,SSE,158,0.2,2.9,50,0.00,,,0.00,WUHU216HW,2013-04-05 08:45:00,
2013-04-05 02:50:00,46.4,29.3,23.18,SW,225,3.4,3.4,51,0.00,,,0.00,WUHU216HW,2013-04-05 08:50:00,
2013-04-05 02:55:00,46.4,28.3,23.18,SW,225,2.0,3.4,49,0.00,,,0.00,WUHU216HW,2013-04-05 08:55:00,
2013-04-05 03:00:00,47.2,28.9,23.18,SW,225,1.1,2.9,49,0.00,,,0.00,WUHU216HW,2013-04-05 09:00:00,
2013-04-05 03:05:00,47.9,29.0,23.17,ENE,68,0.2,1.8,48,0.00,,,0.00,WUHU216HW,2013-04-05 09:05:00,
2013-04-05 03:10:00,48.1,28.6,23.18,WSW,248,0.0,2.0,47,0.00,,,0.00,WUHU216HW,2013-04-05 09:10:00,
2013-04-05 03:15:00,48.2,28.3,23.17,East,90,1.1,2.0,46,0.00,,,0.00,WUHU216HW,2013-04-05 09:15:00,
2013-04-05 03:20:00,48.6,28.6,23.17,WNW,293,0.0,1.1,46,0.00,,,0.00,WUHU216HW,2013-04-05 09:20:00,
2013-04-05 03:25:00,48.6,28.1,23.17,SW,225,2.2,2.9,45,0.00,,,0.00,WUHU216HW,2013-04-05 09:25:00,
2013-04-05 03:30:00,48.8,28.8,23.17,WNW,293,3.1,3.1,46,0.00,,,0.00,WUHU216HW,2013-04-05 09:30:00,
2013-04-05 03:35:00,49.0,28.5,23.17,South,180,0.2,3.6,45,0.00,,,0.00,WUHU216HW,2013-04-05 09:35:00,
2013-04-05 03:40:00,49.0,28.5,23.17,West,270,0.7,3.6,45,0.00,,,0.00,WUHU216HW,2013-04-05 09:40:00,
2013-04-05 03:45:00,49.0,28.5,23.17,SW,225,2.9,2.9,45,0.00,,,0.00,WUHU216HW,2013-04-05 09:45:00,
2013-04-05 03:50:00,49.0,27.9,23.17,SE,135,1.3,2.9,44,0.00,,,0.00,WUHU216HW,2013-04-05 09:50:00,
2013-04-05 03:56:00,49.1,28.0,23.16,WSW,248,0.2,2.5,44,0.00,,,0.00,WUHU216HW,2013-04-05 09:56:00,
2013-04-05 04:01:00,49.3,28.2,23.16,South,180,0.4,6.7,44,0.00,,,0.00,WUHU216HW,2013-04-05 10:01:00,
2013-04-05 04:06:00,49.3,28.7,23.16,SW,225,1.8,6.7,45,0.00,,,0.00,WUHU216HW,2013-04-05 10:06:00,
2013-04-05 04:11:00,49.3,28.2,23.16,South,180,2.9,3.8,44,0.00,,,0.00,WUHU216HW,2013-04-05 10:11:00,
2013-04-05 04:16:00,49.3,28.2,23.16,SSW,203,1.1,4.0,44,0.00,,,0.00,WUHU216HW,2013-04-05 10:16:00,
2013-04-05 04:21:00,49.3,28.2,23.17,SW,225,2.2,5.8,44,0.00,,,0.00,WUHU216HW,2013-04-05 10:21:00,
2013-04-05 04:26:00,49.3,29.9,23.17,ESE,113,3.8,10.5,47,0.00,,,0.00,WUHU216HW,2013-04-05 10:26:00,
2013-04-05 04:32:00,49.1,30.3,23.17,NNW,338,1.6,10.5,48,0.00,,,0.00,WUHU216HW,2013-04-05 10:32:00,
2013-04-05 04:37:00,49.0,30.1,23.17,WNW,293,0.0,5.1,48,0.00,,,0.00,WUHU216HW,2013-04-05 10:37:00,
2013-04-05 04:42:00,48.8,29.9,23.18,NW,315,4.0,4.7,48,0.00,,,0.00,WUHU216HW,2013-04-05 10:42:00,
2013-04-05 04:47:00,48.6,30.3,23.18,SSW,203,2.5,6.3,49,0.00,,,0.00,WUHU216HW,2013-04-05 10:47:00,
2013-04-05 04:52:00,48.4,29.5,23.18,SW,225,1.1,6.3,48,0.00,,,0.00,WUHU216HW,2013-04-05 10:52:00,
2013-04-05 04:57:00,48.2,29.9,23.18,ENE,68,0.4,2.9,49,0.00,,,0.00,WUHU216HW,2013-04-05 10:57:00,
2013-04-05 05:02:00,48.1,30.7,23.19,South,180,0.4,2.5,51,0.00,,,0.00,WUHU216HW,2013-04-05 11:02:00,
2013-04-05 05:07:00,47.7,31.3,23.19,SSE,158,0.4,5.6,53,0.00,,,0.00,WUHU216HW,2013-04-05 11:07:00,
2013-04-05 05:12:00,47.3,31.0,23.18,SW,225,0.9,5.6,53,0.00,,,0.00,WUHU216HW,2013-04-05 11:12:00,
2013-04-05 05:17:00,47.2,30.8,23.17,NW,315,0.0,2.5,53,0.00,,,0.00,WUHU216HW,2013-04-05 11:17:00,
2013-04-05 05:22:00,46.8,30.5,23.17,NW,315,0.0,1.8,53,0.00,,,0.00,WUHU216HW,2013-04-05 11:22:00,
2013-04-05 05:27:00,46.4,30.2,23.17,WNW,293,0.0,0.0,53,0.00,,,0.00,WUHU216HW,2013-04-05 11:27:00,
2013-04-05 05:32:00,46.3,30.4,23.18,SSW,203,0.0,0.4,54,0.00,,,0.00,WUHU216HW,2013-04-05 11:32:00,
2013-04-05 05:37:00,45.7,31.3,23.18,SSW,203,0.4,1.8,57,0.00,,,0.00,WUHU216HW,2013-04-05 11:37:00,
2013-04-05 05:43:00,45.4,31.0,23.18,WSW,248,0.4,1.8,57,0.00,,,0.00,WUHU216HW,2013-04-05 11:43:00,
2013-04-05 05:48:00,45.0,31.2,23.18,ENE,68,1.1,1.3,58,0.00,,,0.00,WUHU216HW,2013-04-05 11:48:00,
2013-04-05 05:53:00,44.6,31.2,23.18,West,270,0.9,1.3,59,0.00,,,0.00,WUHU216HW,2013-04-05 11:53:00,
2013-04-05 05:58:00,44.3,31.3,23.18,WNW,293,0.4,1.1,60,0.00,,,0.00,WUHU216HW,2013-04-05 11:58:00,
2013-04-05 06:03:00,44.1,31.1,23.17,WNW,293,0.2,0.7,60,0.00,,,0.00,WUHU216HW,2013-04-05 12:03:00,
2013-04-05 06:08:00,43.9,31.8,23.17,WSW,248,0.4,1.1,62,0.00,,,0.00,WUHU216HW,2013-04-05 12:08:00,
2013-04-05 06:13:00,43.7,32.8,23.17,West,270,2.0,2.0,65,0.00,,,0.00,WUHU216HW,2013-04-05 12:13:00,
2013-04-05 06:18:00,43.6,31.8,23.17,SW,225,0.4,2.0,63,0.00,,,0.00,WUHU216HW,2013-04-05 12:18:00,
2013-04-05 06:23:00,43.6,31.8,23.17,West,270,0.0,1.8,63,0.00,,,0.00,WUHU216HW,2013-04-05 12:23:00,
2013-04-05 06:28:00,43.2,31.8,23.17,WSW,248,0.9,2.0,64,0.00,,,0.00,WUHU216HW,2013-04-05 12:28:00,
2013-04-05 06:33:00,42.8,31.9,23.17,West,270,1.3,2.0,65,0.00,,,0.00,WUHU216HW,2013-04-05 12:33:00,
2013-04-05 06:39:00,42.8,31.9,23.18,NNW,338,0.0,1.8,65,0.00,,,0.00,WUHU216HW,2013-04-05 12:39:00,
2013-04-05 06:44:00,42.8,32.7,23.18,West,270,3.1,3.1,67,0.00,,,0.00,WUHU216HW,2013-04-05 12:44:00,
2013-04-05 06:49:00,42.8,32.2,23.18,ESE,113,0.4,3.1,66,0.00,,,0.00,WUHU216HW,2013-04-05 12:49:00,
2013-04-05 06:54:00,42.8,32.2,23.18,West,270,0.4,3.1,66,0.00,,,0.00,WUHU216HW,2013-04-05 12:54:00,
2013-04-05 07:00:00,43.0,33.2,23.18,WSW,248,4.0,4.0,68,0.00,,,0.00,WUHU216HW,2013-04-05 13:00:00,
2013-04-05 07:05:00,42.8,35.5,23.18,SW,225,6.9,6.9,75,0.00,,,0.00,WUHU216HW,2013-04-05 13:05:00,
2013-04-05 07:10:00,42.5,36.1,23.18,NNW,338,1.1,7.2,78,0.00,,,0.00,WUHU216HW,2013-04-05 13:10:00,
2013-04-05 07:15:00,42.1,35.7,23.18,West,270,0.4,7.6,78,0.00,,,0.00,WUHU216HW,2013-04-05 13:15:00,
2013-04-05 07:20:00,41.6,34.6,23.19,WSW,248,1.1,7.6,76,0.00,,,0.00,WUHU216HW,2013-04-05 13:20:00,
2013-04-05 07:25:00,41.4,34.4,23.19,West,270,0.4,2.9,76,0.00,,,0.00,WUHU216HW,2013-04-05 13:25:00,
2013-04-05 07:30:00,41.0,34.7,23.19,WNW,293,1.8,2.9,78,0.00,,,0.00,WUHU216HW,2013-04-05 13:30:00,
2013-04-05 07:35:00,41.0,34.3,23.19,NNW,338,1.6,3.8,77,0.00,,,0.00,WUHU216HW,2013-04-05 13:35:00,
2013-04-05 07:40:00,40.7,34.7,23.19,SSE,158,1.1,3.8,79,0.00,,,0.00,WUHU216HW,2013-04-05 13:40:00,
2013-04-05 07:45:00,40.5,35.4,23.19,WNW,293,3.1,5.1,82,0.00,,,0.00,WUHU216HW,2013-04-05 13:45:00,
2013-04-05 07:50:00,40.3,35.2,23.19,WSW,248,0.4,5.1,82,0.00,,,0.00,WUHU216HW,2013-04-05 13:50:00,
2013-04-05 07:55:00,40.1,35.4,23.20,WSW,248,0.4,3.4,83,0.00,,,0.00,WUHU216HW,2013-04-05 13:55:00,
2013-04-05 08:00:00,40.1,35.1,23.20,North,0,0.0,0.4,82,0.00,,,0.00,WUHU216HW,2013-04-05 14:00:00,
2013-04-05 08:05:00,40.1,35.1,23.19,North,0,0.0,0.0,82,0.00,,,0.00,WUHU216HW,2013-04-05 14:05:00,
2013-04-05 08:10:00,40.0,34.6,23.19,North,0,0.0,0.0,81,0.00,,,0.00,WUHU216HW,2013-04-05 14:10:00,
2013-04-05 08:15:00,40.1,35.1,23.20,North,0,0.0,0.0,82,0.00,,,0.00,WUHU216HW,2013-04-05 14:15:00,
2013-04-05 08:20:00,40.0,34.9,23.20,North,0,0.0,0.0,82,0.00,,,0.00,WUHU216HW,2013-04-05 14:20:00,
2013-04-05 08:26:00,39.8,34.8,23.20,North,0,0.0,0.0,82,0.00,,,0.00,WUHU216HW,2013-04-05 14:26:00,
2013-04-05 08:32:00,39.6,34.6,23.20,North,0,0.0,0.0,82,0.00,,,0.00,WUHU216HW,2013-04-05 14:32:00,
2013-04-05 08:37:00,39.6,34.6,23.20,North,0,0.0,0.0,82,0.00,,,0.00,WUHU216HW,2013-04-05 14:37:00,
2013-04-05 08:42:00,39.4,34.7,23.20,North,0,0.0,0.0,83,0.00,,,0.00,WUHU216HW,2013-04-05 14:42:00,
2013-04-05 08:47:00,39.4,35.0,23.21,North,0,0.0,0.0,84,0.00,,,0.00,WUHU216HW,2013-04-05 14:47:00,
2013-04-05 08:53:00,39.2,34.6,23.21,North,0,0.0,0.0,83,0.00,,,0.00,WUHU216HW,2013-04-05 14:53:00,
2013-04-05 08:58:00,39.1,34.9,23.21,North,0,0.0,0.0,85,0.00,,,0.00,WUHU216HW,2013-04-05 14:58:00,
2013-04-05 09:03:00,38.7,34.3,23.21,North,0,0.0,0.0,84,0.00,,,0.00,WUHU216HW,2013-04-05 15:03:00,
2013-04-05 09:08:00,38.3,34.5,23.21,North,0,0.0,0.0,86,0.00,,,0.00,WUHU216HW,2013-04-05 15:08:00,
2013-04-05 09:13:00,38.0,34.4,23.21,North,0,0.0,0.0,87,0.00,,,0.00,WUHU216HW,2013-04-05 15:13:00,
2013-04-05 09:18:00,37.8,33.9,23.21,North,0,0.0,0.0,86,0.00,,,0.00,WUHU216HW,2013-04-05 15:18:00,
2013-04-05 09:23:00,37.6,33.8,23.22,North,0,0.0,0.0,86,0.00,,,0.00,WUHU216HW,2013-04-05 15:23:00,
2013-04-05 09:28:00,37.3,33.1,23.22,North,0,0.0,0.0,85,0.00,,,0.00,WUHU216HW,2013-04-05 15:28:00,
2013-04-05 09:33:00,37.1,32.9,23.22,North,0,0.0,0.0,85,0.00,,,0.00,WUHU216HW,2013-04-05 15:33:00,
2013-04-05 09:38:00,36.5,32.7,23.23,North,0,0.0,0.0,86,0.00,,,0.00,WUHU216HW,2013-04-05 15:38:00,
2013-04-05 09:44:00,36.4,32.2,23.23,North,0,0.0,0.0,85,0.00,,,0.00,WUHU216HW,2013-04-05 15:44:00,
2013-04-05 09:49:00,36.0,31.6,23.23,North,0,0.0,0.0,84,0.00,,,0.00,WUHU216HW,2013-04-05 15:49:00,
2013-04-05 09:54:00,35.5,31.1,23.23,North,0,0.0,0.0,84,0.00,,,0.00,WUHU216HW,2013-04-05 15:54:00,
2013-04-05 09:59:00,35.3,30.9,23.23,North,0,0.0,0.0,84,0.00,,,0.00,WUHU216HW,2013-04-05 15:59:00,
2013-04-05 10:04:00,35.1,30.7,23.23,North,0,0.0,0.0,84,0.00,,,0.00,WUHU216HW,2013-04-05 16:04:00,
2013-04-05 10:09:00,34.9,30.5,23.23,North,0,0.0,0.0,84,0.00,,,0.00,WUHU216HW,2013-04-05 16:09:00,
2013-04-05 10:14:00,34.9,30.8,23.23,North,0,0.0,0.0,85,0.00,,,0.00,WUHU216HW,2013-04-05 16:14:00,
2013-04-05 10:20:00,34.7,30.6,23.24,North,0,0.0,0.0,85,0.00,,,0.00,WUHU216HW,2013-04-05 16:20:00,
2013-04-05 10:25:00,34.7,30.6,23.24,North,0,0.0,0.0,85,0.00,,,0.00,WUHU216HW,2013-04-05 16:25:00,
2013-04-05 10:30:00,34.7,30.6,23.24,North,0,0.0,0.0,85,0.00,,,0.00,WUHU216HW,2013-04-05 16:30:00,
2013-04-05 10:35:00,34.7,30.9,23.24,North,0,0.0,0.0,86,0.00,,,0.00,WUHU216HW,2013-04-05 16:35:00,
2013-04-05 10:40:00,34.7,30.9,23.24,North,0,0.0,0.0,86,0.00,,,0.00,WUHU216HW,2013-04-05 16:40:00,
2013-04-05 10:45:00,34.6,30.7,23.24,North,0,0.0,0.0,86,0.00,,,0.00,WUHU216HW,2013-04-05 16:45:00,
2013-04-05 10:50:00,34.4,30.2,23.24,North,0,0.0,0.0,85,0.00,,,0.00,WUHU216HW,2013-04-05 16:50:00,
2013-04-05 10:55:00,34.2,30.1,23.25,North,0,0.0,0.0,85,0.00,,,0.00,WUHU216HW,2013-04-05 16:55:00,
2013-04-05 11:00:00,33.8,30.0,23.24,North,0,0.0,0.0,86,0.00,,,0.00,WUHU216HW,2013-04-05 17:00:00,
2013-04-05 11:05:00,33.7,29.8,23.24,North,0,0.0,0.0,86,0.00,,,0.00,WUHU216HW,2013-04-05 17:05:00,
2013-04-05 11:10:00,33.5,29.7,23.24,North,0,0.0,0.0,86,0.00,,,0.00,WUHU216HW,2013-04-05 17:10:00,
2013-04-05 11:15:00,33.7,29.8,23.24,North,0,0.0,0.0,86,0.00,,,0.00,WUHU216HW,2013-04-05 17:15:00,
2013-04-05 11:21:00,34.0,30.2,23.24,North,0,0.0,0.0,86,0.00,,,0.00,WUHU216HW,2013-04-05 17:21:00,
2013-04-05 11:26:00,34.4,30.8,23.24,North,0,0.0,0.0,87,0.00,,,0.00,WUHU216HW,2013-04-05 17:26:00,
2013-04-05 11:31:00,34.7,31.1,23.24,North,0,0.0,0.0,87,0.00,,,0.00,WUHU216HW,2013-04-05 17:31:00,
2013-04-05 11:36:00,35.1,31.5,23.23,North,0,0.0,0.0,87,0.00,,,0.00,WUHU216HW,2013-04-05 17:36:00,
2013-04-05 11:41:00,35.6,32.0,23.23,North,0,0.0,0.0,87,0.00,,,0.00,WUHU216HW,2013-04-05 17:41:00,
2013-04-05 11:46:00,36.0,32.8,23.23,North,0,0.0,0.0,88,0.00,,,0.00,WUHU216HW,2013-04-05 17:46:00,
2013-04-05 11:51:00,36.5,33.6,23.23,North,0,0.0,0.0,89,0.00,,,0.00,WUHU216HW,2013-04-05 17:51:00,
2013-04-05 11:57:00,36.9,33.9,23.23,North,0,0.0,0.0,89,0.00,,,0.00,WUHU216HW,2013-04-05 17:57:00,
2013-04-05 12:02:00,38.0,35.3,23.23,North,0,0.0,0.0,90,0.00,,,0.00,WUHU216HW,2013-04-05 18:02:00,
2013-04-05 12:07:00,38.5,35.8,23.23,North,0,0.0,0.0,90,0.00,,,0.00,WUHU216HW,2013-04-05 18:07:00,
2013-04-05 12:12:00,38.9,35.9,23.23,North,0,0.0,0.0,89,0.00,,,0.00,WUHU216HW,2013-04-05 18:12:00,
2013-04-05 12:17:00,38.9,35.9,23.24,North,0,0.0,0.0,89,0.00,,,0.00,WUHU216HW,2013-04-05 18:17:00,
2013-04-05 12:22:00,38.5,35.6,23.24,North,0,0.0,0.0,89,0.00,,,0.00,WUHU216HW,2013-04-05 18:22:00,
2013-04-05 12:27:00,38.5,35.6,23.24,North,0,0.0,0.0,89,0.00,,,0.00,WUHU216HW,2013-04-05 18:27:00,
2013-04-05 12:32:00,38.5,35.6,23.24,North,0,0.0,0.0,89,0.00,,,0.00,WUHU216HW,2013-04-05 18:32:00,
2013-04-05 12:37:00,38.5,35.6,23.23,North,0,0.0,0.0,89,0.00,,,0.00,WUHU216HW,2013-04-05 18:37:00,
2013-04-05 12:42:00,38.3,35.4,23.23,North,0,0.0,0.0,89,0.00,,,0.00,WUHU216HW,2013-04-05 18:42:00,
2013-04-05 12:48:00,38.5,35.6,23.23,North,0,0.0,0.0,89,0.00,,,0.00,WUHU216HW,2013-04-05 18:48:00,
2013-04-05 12:53:00,39.1,36.1,23.23,North,0,0.0,0.0,89,0.00,,,0.00,WUHU216HW,2013-04-05 18:53:00,
2013-04-05 12:58:00,39.2,36.3,23.23,North,0,0.0,0.0,89,0.00,,,0.00,WUHU216HW,2013-04-05 18:58:00,
2013-04-05 13:03:00,39.1,36.4,23.23,North,0,0.0,0.0,90,0.00,,,0.00,WUHU216HW,2013-04-05 19:03:00,
2013-04-05 13:08:00,38.9,36.2,23.23,North,0,0.0,0.0,90,0.00,,,0.00,WUHU216HW,2013-04-05 19:08:00,
2013-04-05 13:13:00,39.1,36.4,23.22,North,0,0.0,0.0,90,0.00,,,0.00,WUHU216HW,2013-04-05 19:13:00,
2013-04-05 13:18:00,39.4,36.7,23.22,North,0,0.0,0.0,90,0.00,,,0.00,WUHU216HW,2013-04-05 19:18:00,
2013-04-05 13:23:00,39.6,36.9,23.22,North,0,0.0,0.0,90,0.00,,,0.00,WUHU216HW,2013-04-05 19:23:00,
2013-04-05 13:28:00,39.4,36.5,23.22,North,0,0.0,0.0,89,0.00,,,0.00,WUHU216HW,2013-04-05 19:28:00,
2013-04-05 13:33:00,39.4,36.5,23.22,North,0,0.0,0.0,89,0.00,,,0.00,WUHU216HW,2013-04-05 19:33:00,
2013-04-05 13:38:00,39.2,36.3,23.22,North,0,0.0,0.0,89,0.00,,,0.00,WUHU216HW,2013-04-05 19:38:00,
2013-04-05 13:43:00,39.2,36.3,23.22,North,0,0.0,0.0,89,0.00,,,0.00,WUHU216HW,2013-04-05 19:43:00,
2013-04-05 13:48:00,39.2,36.3,23.22,North,0,0.0,0.0,89,0.00,,,0.00,WUHU216HW,2013-04-05 19:48:00,
2013-04-05 13:54:00,39.4,36.5,23.22,North,0,0.0,0.0,89,0.00,,,0.00,WUHU216HW,2013-04-05 19:54:00,
2013-04-05 13:59:00,39.2,36.0,23.22,North,0,0.0,0.0,88,0.00,,,0.00,WUHU216HW,2013-04-05 19:59:00,
2013-04-05 14:04:00,39.6,36.4,23.22,North,0,0.0,0.0,88,0.00,,,0.00,WUHU216HW,2013-04-05 20:04:00,
2013-04-05 14:09:00,39.6,36.4,23.22,North,0,0.0,0.0,88,0.00,,,0.00,WUHU216HW,2013-04-05 20:09:00,
2013-04-05 14:14:00,39.6,36.0,23.22,North,0,0.0,0.0,87,0.00,,,0.00,WUHU216HW,2013-04-05 20:14:00,
2013-04-05 14:19:00,40.0,36.4,23.22,WSW,248,4.7,4.7,87,0.00,,,0.00,WUHU216HW,2013-04-05 20:19:00,
2013-04-05 14:25:00,40.1,35.9,23.22,WNW,293,2.5,4.7,85,0.00,,,0.00,WUHU216HW,2013-04-05 20:25:00,
2013-04-05 14:30:00,40.1,35.6,23.22,SW,225,3.1,4.0,84,0.00,,,0.00,WUHU216HW,2013-04-05 20:30:00,
2013-04-05 14:35:00,40.3,35.6,23.22,West,270,4.5,4.5,83,0.00,,,0.00,WUHU216HW,2013-04-05 20:35:00,
2013-04-05 14:40:00,40.3,34.9,23.22,WSW,248,5.4,5.8,81,0.00,,,0.00,WUHU216HW,2013-04-05 20:40:00,
2013-04-05 14:45:00,40.7,34.9,23.22,SSW,203,1.8,8.5,80,0.00,,,0.00,WUHU216HW,2013-04-05 20:45:00,
2013-04-05 14:50:00,40.9,34.5,23.22,West,270,5.4,8.5,78,0.00,,,0.00,WUHU216HW,2013-04-05 20:50:00,
2013-04-05 14:55:00,41.0,34.3,23.22,North,0,1.8,6.0,77,0.00,,,0.00,WUHU216HW,2013-04-05 20:55:00,
2013-04-05 15:00:00,41.0,34.3,23.22,NW,315,0.4,6.0,77,0.00,,,0.00,WUHU216HW,2013-04-05 21:00:00,
2013-04-05 15:05:00,41.0,33.0,23.22,SSE,158,3.1,10.3,73,0.00,,,0.00,WUHU216HW,2013-04-05 21:05:00,
2013-04-05 15:10:00,41.0,33.3,23.22,WSW,248,4.5,10.3,74,0.00,,,0.00,WUHU216HW,2013-04-05 21:10:00,
2013-04-05 15:15:00,41.0,33.0,23.22,WSW,248,1.8,7.4,73,0.00,,,0.00,WUHU216HW,2013-04-05 21:15:00,
2013-04-05 15:20:00,41.4,33.7,23.22,West,270,6.5,7.4,74,0.00,,,0.00,WUHU216HW,2013-04-05 21:20:00,
2013-04-05 15:26:00,41.6,33.8,23.22,WNW,293,0.2,6.5,74,0.00,,,0.00,WUHU216HW,2013-04-05 21:26:00,
2013-04-05 15:31:00,41.9,33.9,23.22,West,270,1.1,4.7,73,0.00,,,0.00,WUHU216HW,2013-04-05 21:31:00,
2013-04-05 15:36:00,42.1,33.5,23.22,SW,225,4.7,4.7,71,0.00,,,0.00,WUHU216HW,2013-04-05 21:36:00,
2013-04-05 15:41:00,42.1,33.8,23.22,West,270,1.8,6.9,72,0.00,,,0.00,WUHU216HW,2013-04-05 21:41:00,
2013-04-05 15:46:00,42.5,33.9,23.22,South,180,1.6,6.9,71,0.00,,,0.00,WUHU216HW,2013-04-05 21:46:00,
2013-04-05 15:51:00,42.5,34.1,23.21,NW,315,4.0,4.0,72,0.00,,,0.00,WUHU216HW,2013-04-05 21:51:00,
2013-04-05 15:56:00,42.5,33.9,23.21,West,270,4.0,5.8,71,0.00,,,0.00,WUHU216HW,2013-04-05 21:56:00,
2013-04-05 16:02:00,42.5,33.9,23.21,WNW,293,0.4,5.8,71,0.00,,,0.00,WUHU216HW,2013-04-05 22:02:00,
2013-04-05 16:07:00,42.7,34.0,23.21,WNW,293,0.4,3.1,71,0.00,,,0.00,WUHU216HW,2013-04-05 22:07:00,
2013-04-05 16:12:00,42.8,34.2,23.21,SW,225,1.6,2.5,71,0.00,,,0.00,WUHU216HW,2013-04-05 22:12:00,
2013-04-05 16:17:00,43.0,33.6,23.21,SSW,203,5.4,6.3,69,0.00,,,0.00,WUHU216HW,2013-04-05 22:17:00,
2013-04-05 16:22:00,43.0,33.2,23.21,South,180,1.6,6.7,68,0.00,,,0.00,WUHU216HW,2013-04-05 22:22:00,
2013-04-05 16:27:00,42.8,33.5,23.21,SW,225,2.0,6.7,69,0.00,,,0.00,WUHU216HW,2013-04-05 22:27:00,
2013-04-05 16:32:00,42.8,33.8,23.21,WSW,248,1.6,2.5,70,0.00,,,0.00,WUHU216HW,2013-04-05 22:32:00,
2013-04-05 16:37:00,43.4,33.6,23.21,SE,135,1.8,6.9,68,0.00,,,0.00,WUHU216HW,2013-04-05 22:37:00,
2013-04-05 16:42:00,44.3,33.6,23.21,SW,225,5.8,6.9,66,0.00,,,0.00,WUHU216HW,2013-04-05 22:42:00,
2013-04-05 16:47:00,45.4,34.7,23.21,West,270,1.3,5.8,66,0.00,,,0.00,WUHU216HW,2013-04-05 22:47:00,
2013-04-05 16:52:00,45.9,35.2,23.21,West,270,0.9,2.2,66,0.00,,,0.00,WUHU216HW,2013-04-05 22:52:00,
2013-04-05 16:57:00,46.3,34.3,23.21,WNW,293,1.8,5.6,63,0.00,,,0.00,WUHU216HW,2013-04-05 22:57:00,
2013-04-05 17:02:00,45.9,31.5,23.21,ESE,113,0.2,5.6,57,0.00,,,0.00,WUHU216HW,2013-04-05 23:02:00,
2013-04-05 17:07:00,45.7,32.2,23.22,WNW,293,1.3,4.3,59,0.00,,,0.00,WUHU216HW,2013-04-05 23:07:00,
2013-04-05 17:12:00,45.7,32.2,23.22,West,270,2.5,7.6,59,0.00,,,0.00,WUHU216HW,2013-04-05 23:12:00,
2013-04-05 17:17:00,45.5,31.1,23.22,SSW,203,4.3,7.6,57,0.00,,,0.00,WUHU216HW,2013-04-05 23:17:00,
2013-04-05 17:23:00,45.4,31.0,23.21,West,270,3.4,6.0,57,0.00,,,0.00,WUHU216HW,2013-04-05 23:23:00,
2013-04-05 17:28:00,45.7,31.3,23.22,SW,225,3.8,4.7,57,0.00,,,0.00,WUHU216HW,2013-04-05 23:28:00,
2013-04-05 17:33:00,45.9,31.1,23.22,NW,315,0.9,4.7,56,0.00,,,0.00,WUHU216HW,2013-04-05 23:33:00,
2013-04-05 17:38:00,45.5,30.2,23.22,SW,225,6.3,6.3,55,0.00,,,0.00,WUHU216HW,2013-04-05 23:38:00,
2013-04-05 17:43:00,45.2,30.8,23.22,SSW,203,2.9,6.3,57,0.00,,,0.00,WUHU216HW,2013-04-05 23:43:00,
2013-04-05 17:48:00,45.0,30.7,23.22,WSW,248,3.8,4.9,57,0.00,,,0.00,WUHU216HW,2013-04-05 23:48:00,
2013-04-05 17:53:00,44.6,30.3,23.22,NNW,338,2.0,4.9,57,0.00,,,0.00,WUHU216HW,2013-04-05 23:53:00,
2013-04-05 17:59:00,44.3,30.4,23.22,WSW,248,0.7,5.4,58,0.00,,,0.00,WUHU216HW,2013-04-05 23:59:00,
2013-04-05 18:04:00,43.9,30.5,23.22,West,270,2.2,5.4,59,0.00,,,0.00,WUHU216HW,2013-04-06 00:04:00,
2013-04-05 18:09:00,43.7,31.1,23.22,West,270,1.3,4.5,61,0.00,,,0.00,WUHU216HW,2013-04-06 00:09:00,
2013-04-05 18:14:00,43.6,31.4,23.22,North,0,1.3,4.0,62,0.00,,,0.00,WUHU216HW,2013-04-06 00:14:00,
2013-04-05 18:19:00,43.6,31.0,23.22,ENE,68,1.1,5.4,61,0.00,,,0.00,WUHU216HW,2013-04-06 00:19:00,
2013-04-05 18:24:00,43.2,30.6,23.22,SSW,203,1.1,5.4,61,0.00,,,0.00,WUHU216HW,2013-04-06 00:24:00,
2013-04-05 18:30:00,43.0,30.4,23.22,NNW,338,4.9,4.9,61,0.00,,,0.00,WUHU216HW,2013-04-06 00:30:00,
2013-04-05 18:34:00,42.8,30.2,23.22,WNW,293,0.4,4.9,61,0.00,,,0.00,WUHU216HW,2013-04-06 00:34:00,
2013-04-05 18:40:00,42.8,29.9,23.22,WSW,248,0.7,4.3,60,0.00,,,0.00,WUHU216HW,2013-04-06 00:40:00,
2013-04-05 18:45:00,42.8,30.2,23.22,WNW,293,1.1,3.4,61,0.00,,,0.00,WUHU216HW,2013-04-06 00:45:00,
2013-04-05 18:50:00,42.8,30.2,23.22,WNW,293,1.1,1.1,61,0.00,,,0.00,WUHU216HW,2013-04-06 00:50:00,
2013-04-05 19:00:00,42.5,28.7,23.22,WSW,248,2.9,2.9,58,0.00,,,0.00,WUHU216HW,2013-04-06 01:00:00,
2013-04-05 19:05:00,42.3,28.1,23.22,WSW,248,3.1,3.4,57,0.00,,,0.00,WUHU216HW,2013-04-06 01:05:00,
2013-04-05 19:10:00,42.3,28.1,23.22,WSW,248,0.7,3.8,57,0.00,,,0.00,WUHU216HW,2013-04-06 01:10:00,
2013-04-05 19:15:00,42.1,28.4,23.22,SW,225,1.1,3.8,58,0.00,,,0.00,WUHU216HW,2013-04-06 01:15:00,
2013-04-05 19:20:00,41.9,28.6,23.22,SW,225,0.2,1.3,59,0.00,,,0.00,WUHU216HW,2013-04-06 01:20:00,
2013-04-05 19:25:00,41.6,28.7,23.22,SSW,203,0.2,2.7,60,0.00,,,0.00,WUHU216HW,2013-04-06 01:25:00,
2013-04-05 19:30:00,41.4,28.6,23.22,SSE,158,0.4,2.7,60,0.00,,,0.00,WUHU216HW,2013-04-06 01:30:00,
2013-04-05 19:35:00,41.2,28.8,23.22,SW,225,0.0,1.1,61,0.00,,,0.00,WUHU216HW,2013-04-06 01:35:00,
2013-04-05 19:40:00,40.9,28.4,23.22,WSW,248,0.7,2.7,61,0.00,,,0.00,WUHU216HW,2013-04-06 01:40:00,
2013-04-05 19:46:00,40.5,28.1,23.22,WSW,248,1.8,2.7,61,0.00,,,0.00,WUHU216HW,2013-04-06 01:46:00,
2013-04-05 19:51:00,40.1,28.5,23.22,WSW,248,1.6,2.0,63,0.00,,,0.00,WUHU216HW,2013-04-06 01:51:00,
2013-04-05 19:56:00,39.6,28.0,23.22,SW,225,1.6,2.0,63,0.00,,,0.00,WUHU216HW,2013-04-06 01:56:00,
2013-04-05 20:01:00,39.1,27.8,23.22,WSW,248,1.6,2.0,64,0.00,,,0.00,WUHU216HW,2013-04-06 02:01:00,
2013-04-05 20:06:00,38.5,28.1,23.22,WSW,248,1.3,1.6,66,0.00,,,0.00,WUHU216HW,2013-04-06 02:06:00,
2013-04-05 20:11:00,38.2,27.7,23.23,West,270,0.4,1.6,66,0.00,,,0.00,WUHU216HW,2013-04-06 02:11:00,
2013-04-05 20:17:00,38.0,27.6,23.22,West,270,1.6,1.6,66,0.00,,,0.00,WUHU216HW,2013-04-06 02:17:00,
2013-04-05 20:22:00,37.8,27.5,23.22,West,270,0.2,1.6,66,0.00,,,0.00,WUHU216HW,2013-04-06 02:22:00,
2013-04-05 20:27:00,37.4,27.1,23.23,West,270,1.1,1.1,66,0.00,,,0.00,WUHU216HW,2013-04-06 02:27:00,
2013-04-05 20:32:00,37.3,26.9,23.23,West,270,0.0,1.1,66,0.00,,,0.00,WUHU216HW,2013-04-06 02:32:00,
2013-04-05 20:37:00,37.3,26.6,23.23,West,270,1.1,1.1,65,0.00,,,0.00,WUHU216HW,2013-04-06 02:37:00,
2013-04-05 20:42:00,37.1,26.7,23.24,West,270,1.1,1.3,66,0.00,,,0.00,WUHU216HW,2013-04-06 02:42:00,
2013-04-05 20:47:00,37.1,26.4,23.24,WSW,248,1.3,1.6,65,0.00,,,0.00,WUHU216HW,2013-04-06 02:47:00,
2013-04-05 20:52:00,36.9,27.0,23.24,WSW,248,1.8,2.5,67,0.00,,,0.00,WUHU216HW,2013-04-06 02:52:00,
2013-04-05 20:58:00,36.5,26.7,23.24,WSW,248,1.3,2.5,67,0.00,,,0.00,WUHU216HW,2013-04-06 02:58:00,
2013-04-05 21:03:00,36.4,27.2,23.24,WSW,248,2.5,2.5,69,0.00,,,0.00,WUHU216HW,2013-04-06 03:03:00,
2013-04-05 21:08:00,35.8,26.7,23.24,SW,225,1.8,2.5,69,0.00,,,0.00,WUHU216HW,2013-04-06 03:08:00,
2013-04-05 21:13:00,35.6,26.8,23.24,WSW,248,1.1,2.5,70,0.00,,,0.00,WUHU216HW,2013-04-06 03:13:00,
2013-04-05 21:18:00,35.5,27.0,23.25,WSW,248,1.1,2.5,71,0.00,,,0.00,WUHU216HW,2013-04-06 03:18:00,
2013-04-05 21:23:00,35.3,26.8,23.25,West,270,1.3,2.7,71,0.00,,,0.00,WUHU216HW,2013-04-06 03:23:00,
2013-04-05 21:28:00,35.3,26.8,23.25,SW,225,2.5,2.7,71,0.00,,,0.00,WUHU216HW,2013-04-06 03:28:00,
2013-04-05 21:33:00,34.9,26.5,23.25,WSW,248,1.6,2.9,71,0.00,,,0.00,WUHU216HW,2013-04-06 03:33:00,
2013-04-05 21:38:00,35.1,26.7,23.25,WSW,248,1.6,2.9,71,0.00,,,0.00,WUHU216HW,2013-04-06 03:38:00,
2013-04-05 21:43:00,35.1,26.7,23.25,WSW,248,3.1,3.1,71,0.00,,,0.00,WUHU216HW,2013-04-06 03:43:00,
2013-04-05 21:49:00,35.1,26.7,23.25,SW,225,2.0,3.1,71,0.00,,,0.00,WUHU216HW,2013-04-06 03:49:00,
2013-04-05 21:54:00,35.1,26.7,23.25,WSW,248,1.6,2.5,71,0.00,,,0.00,WUHU216HW,2013-04-06 03:54:00,
2013-04-05 21:59:00,35.1,26.3,23.25,WSW,248,2.5,3.1,70,0.00,,,0.00,WUHU216HW,2013-04-06 03:59:00,
2013-04-05 22:00:00,35.1,26.3,23.25,WSW,248,2.5,3.1,70,0.00,,,0.00,WUHU216HW,2013-04-06 04:00:00,
2013-04-05 22:02:00,35.1,26.3,23.25,West,270,1.6,3.1,70,0.00,,,0.00,WUHU216HW,2013-04-06 04:02:00,
2013-04-05 22:07:00,34.9,26.1,23.25,WSW,248,2.0,2.5,70,0.00,,,0.00,WUHU216HW,2013-04-06 04:07:00,
2013-04-05 22:12:00,34.9,26.5,23.25,WSW,248,2.9,2.9,71,0.00,,,0.00,WUHU216HW,2013-04-06 04:12:00,
2013-04-05 22:17:00,34.9,26.5,23.25,WSW,248,1.3,2.9,71,0.00,,,0.00,WUHU216HW,2013-04-06 04:17:00,
2013-04-05 22:22:00,34.9,26.5,23.25,WSW,248,2.5,2.9,71,0.00,,,0.00,WUHU216HW,2013-04-06 04:22:00,
2013-04-05 22:27:00,34.7,26.3,23.25,WSW,248,2.2,2.9,71,0.00,,,0.00,WUHU216HW,2013-04-06 04:27:00,
2013-04-05 22:32:00,34.7,26.6,23.25,WSW,248,3.1,3.1,72,0.00,,,0.00,WUHU216HW,2013-04-06 04:32:00,
2013-04-05 22:37:00,34.7,26.6,23.25,North,0,0.0,3.1,72,0.00,,,0.00,WUHU216HW,2013-04-06 04:37:00,
2013-04-05 22:42:00,34.9,26.7,23.25,North,0,0.0,3.1,72,0.00,,,0.00,WUHU216HW,2013-04-06 04:42:00,
2013-04-05 22:47:00,35.1,26.7,23.25,North,0,0.0,0.0,71,0.00,,,0.00,WUHU216HW,2013-04-06 04:47:00,
2013-04-05 22:52:00,35.1,26.3,23.25,North,0,0.0,0.0,70,0.00,,,0.00,WUHU216HW,2013-04-06 04:52:00,
2013-04-05 22:57:00,34.9,26.5,23.25,North,0,0.0,0.0,71,0.00,,,0.00,WUHU216HW,2013-04-06 04:57:00,
2013-04-05 23:03:00,34.6,26.1,23.25,North,0,0.0,0.0,71,0.00,,,0.00,WUHU216HW,2013-04-06 05:03:00,
2013-04-05 23:08:00,34.4,26.2,23.25,North,0,0.0,0.0,72,0.00,,,0.00,WUHU216HW,2013-04-06 05:08:00,
2013-04-05 23:13:00,34.2,25.8,23.25,North,0,0.0,0.0,71,0.00,,,0.00,WUHU216HW,2013-04-06 05:13:00,
2013-04-05 23:18:00,34.2,26.0,23.25,North,0,0.0,0.0,72,0.00,,,0.00,WUHU216HW,2013-04-06 05:18:00,
2013-04-05 23:23:00,34.2,26.0,23.25,North,0,0.0,0.0,72,0.00,,,0.00,WUHU216HW,2013-04-06 05:23:00,
2013-04-05 23:28:00,34.2,25.8,23.24,North,0,0.0,0.0,71,0.00,,,0.00,WUHU216HW,2013-04-06 05:28:00,
2013-04-05 23:33:00,34.2,26.0,23.24,North,0,0.0,0.0,72,0.00,,,0.00,WUHU216HW,2013-04-06 05:33:00,
2013-04-05 23:38:00,34.0,26.2,23.24,North,0,0.0,0.0,73,0.00,,,0.00,WUHU216HW,2013-04-06 05:38:00,
2013-04-05 23:43:00,33.8,26.0,23.24,North,0,0.0,0.0,73,0.00,,,0.00,WUHU216HW,2013-04-06 05:43:00,
2013-04-05 23:48:00,34.0,26.2,23.24,North,0,0.0,0.0,73,0.00,,,0.00,WUHU216HW,2013-04-06 05:48:00,
2013-04-05 23:53:00,34.0,25.8,23.24,North,0,0.0,0.0,72,0.00,,,0.00,WUHU216HW,2013-04-06 05:53:00,
2013-04-05 23:58:00,34.4,26.6,23.24,North,0,0.0,0.0,73,0.00,,,0.00,WUHU216HW,2013-04-06 05:58:00,